createdAt,value
2018-08-17T00:00:35.764Z,1010.29
2018-08-17T00:01:35.762Z,1010.27
2018-08-17T00:02:35.745Z,1010.28
2018-08-17T00:03:35.733Z,1010.22
2018-08-17T00:04:35.745Z,1010.24
2018-08-17T00:05:35.751Z,1010.24
2018-08-17T00:06:35.697Z,1010.20
2018-08-17T00:07:35.693Z,1010.21
2018-08-17T00:08:35.681Z,1010.17
2018-08-17T00:09:35.667Z,1010.16
2018-08-17T00:10:35.651Z,1010.16
2018-08-17T00:11:35.673Z,1010.17
2018-08-17T00:12:35.637Z,1010.19
2018-08-17T00:13:35.621Z,1010.14
2018-08-17T00:14:35.607Z,1010.15
2018-08-17T00:15:35.604Z,1010.10
2018-08-17T00:16:35.586Z,1010.10
2018-08-17T00:17:35.624Z,1010.11
2018-08-17T00:18:35.572Z,1010.06
2018-08-17T00:19:35.554Z,1010.09
2018-08-17T00:20:35.547Z,1010.07
2018-08-17T00:21:35.532Z,1010.07
2018-08-17T00:22:35.558Z,1010.09
2018-08-17T00:23:35.512Z,1010.04
2018-08-17T00:24:35.504Z,1010.06
2018-08-17T00:25:35.498Z,1010.04
2018-08-17T00:26:35.476Z,1010.00
2018-08-17T00:27:35.521Z,1010.02
2018-08-17T00:28:35.456Z,1009.99
2018-08-17T00:29:35.441Z,1010.00
2018-08-17T00:30:35.431Z,1009.99
2018-08-17T00:31:35.424Z,1009.98
2018-08-17T00:32:35.410Z,1010.04
2018-08-17T00:33:35.419Z,1010.01
2018-08-17T00:34:35.409Z,1010.08
2018-08-17T00:35:35.439Z,1010.10
2018-08-17T00:36:35.369Z,1010.06
2018-08-17T00:37:35.358Z,1010.09
2018-08-17T00:38:35.371Z,1010.09
2018-08-17T00:39:35.347Z,1010.11
2018-08-17T00:40:35.321Z,1010.13
2018-08-17T00:41:35.327Z,1010.12
2018-08-17T00:42:35.304Z,1010.14
2018-08-17T00:43:35.312Z,1010.14
2018-08-17T00:44:35.304Z,1010.16
2018-08-17T00:45:35.269Z,1010.16
2018-08-17T00:46:35.253Z,1010.16
2018-08-17T00:47:35.243Z,1010.19
2018-08-17T00:48:35.234Z,1010.16
2018-08-17T00:49:35.250Z,1010.16
2018-08-17T00:50:35.208Z,1010.20
2018-08-17T00:51:35.219Z,1010.22
2018-08-17T00:52:35.216Z,1010.21
2018-08-17T00:53:35.175Z,1010.21
2018-08-17T00:54:35.171Z,1010.22
2018-08-17T00:55:35.274Z,1010.23
2018-08-17T00:56:35.145Z,1010.24
2018-08-17T00:57:35.140Z,1010.29
2018-08-17T00:58:35.177Z,1010.28
2018-08-17T00:59:35.126Z,1010.36
2018-08-17T01:00:35.099Z,1010.45
2018-08-17T01:01:35.093Z,1010.44
2018-08-17T01:02:35.075Z,1010.50
2018-08-17T01:03:35.065Z,1010.48
2018-08-17T01:04:35.075Z,1010.56
2018-08-17T01:05:35.048Z,1010.55
2018-08-17T01:06:35.031Z,1010.58
2018-08-17T01:07:35.022Z,1010.63
2018-08-17T01:08:35.009Z,1010.62
2018-08-17T01:09:35.046Z,1010.66
2018-08-17T01:10:34.982Z,1010.67
2018-08-17T01:11:34.972Z,1010.72
2018-08-17T01:12:34.962Z,1010.75
2018-08-17T01:13:34.958Z,1010.75
2018-08-17T01:14:34.962Z,1010.78
2018-08-17T01:15:35.006Z,1010.77
2018-08-17T01:16:34.913Z,1010.83
2018-08-17T01:17:34.909Z,1010.86
2018-08-17T01:18:34.910Z,1010.89
2018-08-17T01:19:34.909Z,1010.92
2018-08-17T01:20:34.871Z,1010.91
2018-08-17T01:21:34.862Z,1010.97
2018-08-17T01:22:34.851Z,1010.98
2018-08-17T01:23:34.841Z,1010.97
2018-08-17T01:24:34.860Z,1011.02
2018-08-17T01:25:34.816Z,1011.01
2018-08-17T01:26:34.806Z,1011.10
2018-08-17T01:27:34.793Z,1011.08
2018-08-17T01:28:34.786Z,1011.10
2018-08-17T01:29:34.772Z,1011.13
2018-08-17T01:30:34.785Z,1011.15
2018-08-17T01:31:35.316Z,1011.14
2018-08-17T01:32:34.739Z,1011.27
2018-08-17T01:33:34.728Z,1011.22
2018-08-17T01:34:34.730Z,1011.25
2018-08-17T01:35:34.701Z,1011.24
2018-08-17T01:36:34.720Z,1011.29
2018-08-17T01:37:34.683Z,1011.33
2018-08-17T01:38:34.669Z,1011.34
2018-08-17T01:39:34.657Z,1011.40
2018-08-17T01:40:34.643Z,1011.37
2018-08-17T01:41:34.654Z,1011.47
2018-08-17T01:42:34.625Z,1011.41
2018-08-17T01:43:34.611Z,1011.39
2018-08-17T01:44:34.631Z,1011.46
2018-08-17T01:45:34.590Z,1011.50
2018-08-17T01:46:34.575Z,1011.45
2018-08-17T01:47:34.571Z,1011.52
2018-08-17T01:48:34.559Z,1011.49
2018-08-17T01:49:34.576Z,1011.49
2018-08-17T01:50:34.531Z,1011.44
2018-08-17T01:51:34.520Z,1011.52
2018-08-17T01:52:34.514Z,1011.41
2018-08-17T01:53:34.498Z,1011.41
2018-08-17T01:54:34.489Z,1011.39
2018-08-17T01:55:34.566Z,1011.38
2018-08-17T01:56:34.464Z,1011.34
2018-08-17T01:57:34.449Z,1011.39
2018-08-17T01:58:34.451Z,1011.41
2018-08-17T01:59:34.431Z,1011.45
2018-08-17T02:00:34.449Z,1011.50
2018-08-17T02:01:34.407Z,1011.48
2018-08-17T02:02:34.397Z,1011.48
2018-08-17T02:03:34.384Z,1011.49
2018-08-17T02:04:34.418Z,1011.49
2018-08-17T02:05:34.369Z,1011.49
2018-08-17T02:06:34.352Z,1011.47
2018-08-17T02:07:34.344Z,1011.46
2018-08-17T02:08:34.327Z,1011.60
2018-08-17T02:09:34.367Z,1011.58
2018-08-17T02:10:34.308Z,1011.58
2018-08-17T02:11:34.828Z,1011.67
2018-08-17T02:12:34.285Z,1011.68
2018-08-17T02:13:34.276Z,1011.72
2018-08-17T02:14:34.312Z,1011.76
2018-08-17T02:15:34.281Z,1011.71
2018-08-17T02:16:34.243Z,1011.72
2018-08-17T02:17:34.231Z,1011.74
2018-08-17T02:18:34.224Z,1011.72
2018-08-17T02:19:34.211Z,1011.70
2018-08-17T02:20:34.195Z,1011.74
2018-08-17T02:21:34.212Z,1011.73
2018-08-17T02:22:34.180Z,1011.79
2018-08-17T02:23:34.172Z,1011.81
2018-08-17T02:24:34.212Z,1011.81
2018-08-17T02:25:34.141Z,1011.91
2018-08-17T02:26:34.152Z,1011.90
2018-08-17T02:27:34.130Z,1011.88
2018-08-17T02:28:34.109Z,1011.90
2018-08-17T02:29:34.101Z,1011.90
2018-08-17T02:30:34.091Z,1011.88
2018-08-17T02:31:34.109Z,1011.94
2018-08-17T02:32:34.066Z,1011.92
2018-08-17T02:33:34.055Z,1012.01
2018-08-17T02:34:34.044Z,1011.99
2018-08-17T02:35:34.092Z,1011.94
2018-08-17T02:36:34.046Z,1011.97
2018-08-17T02:37:34.016Z,1011.93
2018-08-17T02:38:34.002Z,1011.95
2018-08-17T02:39:33.993Z,1012.00
2018-08-17T02:40:33.980Z,1011.98
2018-08-17T02:41:34.000Z,1012.00
2018-08-17T02:42:33.966Z,1011.93
2018-08-17T02:43:33.944Z,1011.96
2018-08-17T02:44:33.932Z,1011.92
2018-08-17T02:45:33.924Z,1011.93
2018-08-17T02:46:33.907Z,1011.89
2018-08-17T02:47:34.841Z,1011.90
2018-08-17T02:48:33.895Z,1011.87
2018-08-17T02:49:33.879Z,1011.91
2018-08-17T02:50:33.871Z,1011.94
2018-08-17T02:51:33.939Z,1011.96
2018-08-17T02:52:33.872Z,1011.94
2018-08-17T02:53:33.839Z,1011.91
2018-08-17T02:54:33.824Z,1011.91
2018-08-17T02:55:33.812Z,1011.96
2018-08-17T02:56:33.805Z,1012.05
2018-08-17T02:57:33.815Z,1012.04
2018-08-17T02:58:33.785Z,1011.98
2018-08-17T02:59:33.848Z,1012.00
2018-08-17T03:00:33.760Z,1012.05
2018-08-17T03:01:33.748Z,1011.97
2018-08-17T03:02:33.768Z,1012.00
2018-08-17T03:03:33.723Z,1011.94
2018-08-17T03:04:33.710Z,1011.90
2018-08-17T03:05:33.704Z,1011.85
2018-08-17T03:06:33.697Z,1011.82
2018-08-17T03:07:33.707Z,1011.73
2018-08-17T03:08:33.703Z,1011.71
2018-08-17T03:09:33.659Z,1011.65
2018-08-17T03:10:33.663Z,1011.67
2018-08-17T03:11:33.636Z,1011.72
2018-08-17T03:12:33.623Z,1011.68
2018-08-17T03:13:33.624Z,1011.64
2018-08-17T03:14:33.626Z,1011.72
2018-08-17T03:15:33.594Z,1011.73
2018-08-17T03:16:33.580Z,1011.71
2018-08-17T03:17:33.571Z,1011.71
2018-08-17T03:18:33.559Z,1011.74
2018-08-17T03:19:33.573Z,1011.78
2018-08-17T03:20:33.568Z,1011.84
2018-08-17T03:21:33.535Z,1011.88
2018-08-17T03:22:33.516Z,1011.91
2018-08-17T03:23:33.506Z,1011.86
2018-08-17T03:24:33.495Z,1011.87
2018-08-17T03:25:33.499Z,1011.87
2018-08-17T03:26:33.547Z,1011.94
2018-08-17T03:27:33.455Z,1011.96
2018-08-17T03:28:33.450Z,1011.89
2018-08-17T03:29:33.442Z,1011.89
2018-08-17T03:30:33.428Z,1011.91
2018-08-17T03:31:33.504Z,1011.92
2018-08-17T03:32:33.401Z,1011.93
2018-08-17T03:33:33.392Z,1011.95
2018-08-17T03:34:33.377Z,1011.97
2018-08-17T03:35:33.369Z,1011.88
2018-08-17T03:36:33.383Z,1011.99
2018-08-17T03:37:33.358Z,1011.97
2018-08-17T03:38:33.342Z,1012.05
2018-08-17T03:39:33.319Z,1012.02
2018-08-17T03:40:33.313Z,1012.02
2018-08-17T03:41:33.333Z,1011.98
2018-08-17T03:42:33.298Z,1012.01
2018-08-17T03:43:33.301Z,1012.09
2018-08-17T03:44:33.264Z,1012.05
2018-08-17T03:45:33.256Z,1012.06
2018-08-17T03:46:33.274Z,1012.03
2018-08-17T03:47:33.316Z,1012.10
2018-08-17T03:48:33.228Z,1012.17
2018-08-17T03:49:33.210Z,1012.07
2018-08-17T03:50:33.223Z,1012.04
2018-08-17T03:51:33.190Z,1012.04
2018-08-17T03:52:33.207Z,1011.97
2018-08-17T03:53:33.165Z,1011.95
2018-08-17T03:54:33.162Z,1011.86
2018-08-17T03:55:33.147Z,1011.73
2018-08-17T03:56:33.139Z,1011.68
2018-08-17T03:57:33.119Z,1011.67
2018-08-17T03:58:33.133Z,1011.64
2018-08-17T03:59:33.098Z,1011.59
2018-08-17T04:00:33.093Z,1011.64
2018-08-17T04:01:33.085Z,1011.65
2018-08-17T04:02:33.069Z,1011.68
2018-08-17T04:03:33.153Z,1011.71
2018-08-17T04:04:33.044Z,1011.77
2018-08-17T04:05:33.030Z,1011.84
2018-08-17T04:06:33.030Z,1011.85
2018-08-17T04:07:33.007Z,1011.84
2018-08-17T04:08:33.031Z,1011.89
2018-08-17T04:09:32.992Z,1011.87
2018-08-17T04:10:32.978Z,1011.86
2018-08-17T04:11:32.975Z,1011.86
2018-08-17T04:12:32.963Z,1011.90
2018-08-17T04:13:32.981Z,1011.89
2018-08-17T04:14:32.933Z,1011.89
2018-08-17T04:15:33.070Z,1011.93
2018-08-17T04:16:32.918Z,1011.99
2018-08-17T04:17:32.907Z,1012.10
2018-08-17T04:18:32.928Z,1012.20
2018-08-17T04:19:32.878Z,1012.21
2018-08-17T04:20:32.864Z,1012.27
2018-08-17T04:21:32.863Z,1012.22
2018-08-17T04:22:32.848Z,1012.31
2018-08-17T04:23:32.865Z,1012.31
2018-08-17T04:24:32.828Z,1012.31
2018-08-17T04:25:32.816Z,1012.40
2018-08-17T04:26:32.818Z,1012.36
2018-08-17T04:27:32.829Z,1012.47
2018-08-17T04:28:32.783Z,1012.50
2018-08-17T04:29:32.796Z,1012.50
2018-08-17T04:30:32.766Z,1012.52
2018-08-17T04:31:32.780Z,1012.61
2018-08-17T04:32:32.735Z,1012.67
2018-08-17T04:33:32.740Z,1012.73
2018-08-17T04:34:32.725Z,1012.77
2018-08-17T04:35:32.807Z,1012.78
2018-08-17T04:36:32.719Z,1012.81
2018-08-17T04:37:32.683Z,1012.80
2018-08-17T04:38:32.672Z,1012.84
2018-08-17T04:39:32.664Z,1012.87
2018-08-17T04:40:32.646Z,1012.90
2018-08-17T04:41:32.636Z,1012.88
2018-08-17T04:42:32.657Z,1012.99
2018-08-17T04:43:32.638Z,1013.06
2018-08-17T04:44:32.610Z,1013.04
2018-08-17T04:45:32.602Z,1013.15
2018-08-17T04:46:32.595Z,1013.16
2018-08-17T04:47:32.570Z,1013.20
2018-08-17T04:48:32.589Z,1013.20
2018-08-17T04:49:32.548Z,1013.22
2018-08-17T04:50:32.543Z,1013.19
2018-08-17T04:51:32.529Z,1013.17
2018-08-17T04:52:32.520Z,1013.21
2018-08-17T04:53:32.507Z,1013.12
2018-08-17T04:54:32.522Z,1013.17
2018-08-17T04:55:32.490Z,1013.15
2018-08-17T04:56:32.477Z,1013.18
2018-08-17T04:57:32.456Z,1013.16
2018-08-17T04:58:32.475Z,1013.22
2018-08-17T04:59:32.442Z,1013.21
2018-08-17T05:00:32.431Z,1013.19
2018-08-17T05:01:32.418Z,1013.22
2018-08-17T05:02:32.408Z,1013.27
2018-08-17T05:03:32.496Z,1013.34
2018-08-17T05:04:32.381Z,1013.38
2018-08-17T05:05:32.372Z,1013.37
2018-08-17T05:06:32.360Z,1013.29
2018-08-17T05:07:32.362Z,1013.22
2018-08-17T05:08:32.364Z,1013.18
2018-08-17T05:09:32.326Z,1013.18
2018-08-17T05:10:32.314Z,1013.14
2018-08-17T05:11:32.305Z,1013.14
2018-08-17T05:12:32.289Z,1013.14
2018-08-17T05:13:32.311Z,1013.10
2018-08-17T05:14:32.279Z,1013.02
2018-08-17T05:15:32.256Z,1013.07
2018-08-17T05:16:32.255Z,1013.01
2018-08-17T05:17:32.233Z,1012.95
2018-08-17T05:18:32.253Z,1012.91
2018-08-17T05:19:32.218Z,1012.87
2018-08-17T05:20:32.206Z,1012.85
2018-08-17T05:21:32.211Z,1012.94
2018-08-17T05:22:32.175Z,1012.98
2018-08-17T05:23:32.194Z,1012.93
2018-08-17T05:24:32.185Z,1012.99
2018-08-17T05:25:32.148Z,1013.06
2018-08-17T05:26:32.142Z,1013.01
2018-08-17T05:27:32.126Z,1013.06
2018-08-17T05:28:32.115Z,1013.08
2018-08-17T05:29:32.133Z,1013.08
2018-08-17T05:30:32.096Z,1013.08
2018-08-17T05:31:32.086Z,1013.13
2018-08-17T05:32:32.070Z,1013.05
2018-08-17T05:33:32.057Z,1013.09
2018-08-17T05:34:32.089Z,1013.06
2018-08-17T05:35:32.036Z,1013.06
2018-08-17T05:36:32.024Z,1013.03
2018-08-17T05:37:32.011Z,1012.97
2018-08-17T05:38:32.000Z,1012.96
2018-08-17T05:39:31.990Z,1012.97
2018-08-17T05:40:31.998Z,1013.05
2018-08-17T05:41:31.974Z,1013.08
2018-08-17T05:42:31.973Z,1013.15
2018-08-17T05:43:31.958Z,1013.17
2018-08-17T05:44:31.941Z,1013.19
2018-08-17T05:45:31.959Z,1013.20
2018-08-17T05:46:31.916Z,1013.20
2018-08-17T05:47:31.908Z,1013.20
2018-08-17T05:48:31.895Z,1013.27
2018-08-17T05:49:31.884Z,1013.30
2018-08-17T05:50:31.867Z,1013.28
2018-08-17T05:51:31.884Z,1013.32
2018-08-17T05:52:31.856Z,1013.34
2018-08-17T05:53:31.840Z,1013.34
2018-08-17T05:54:31.826Z,1013.36
2018-08-17T05:55:31.816Z,1013.30
2018-08-17T05:56:31.876Z,1013.29
2018-08-17T05:57:31.795Z,1013.29
2018-08-17T05:58:31.780Z,1013.33
2018-08-17T05:59:31.779Z,1013.37
2018-08-17T06:00:31.758Z,1013.37
2018-08-17T06:01:31.746Z,1013.48
2018-08-17T06:02:31.765Z,1013.45
2018-08-17T06:03:31.802Z,1013.50
2018-08-17T06:04:31.730Z,1013.60
2018-08-17T06:05:31.705Z,1013.61
2018-08-17T06:06:31.702Z,1013.64
2018-08-17T06:07:31.708Z,1013.67
2018-08-17T06:08:31.667Z,1013.68
2018-08-17T06:09:31.660Z,1013.64
2018-08-17T06:10:31.658Z,1013.69
2018-08-17T06:11:31.675Z,1013.71
2018-08-17T06:12:31.685Z,1013.67
2018-08-17T06:13:31.607Z,1013.67
2018-08-17T06:14:31.597Z,1013.67
2018-08-17T06:15:31.587Z,1013.68
2018-08-17T06:16:31.580Z,1013.62
2018-08-17T06:17:31.570Z,1013.64
2018-08-17T06:18:31.584Z,1013.62
2018-08-17T06:19:31.554Z,1013.66
2018-08-17T06:20:31.528Z,1013.74
2018-08-17T06:21:31.516Z,1013.77
2018-08-17T06:22:31.533Z,1013.68
2018-08-17T06:23:31.535Z,1013.68
2018-08-17T06:24:31.497Z,1013.53
2018-08-17T06:25:31.482Z,1013.48
2018-08-17T06:26:31.466Z,1013.39
2018-08-17T06:27:31.455Z,1013.26
2018-08-17T06:28:31.445Z,1013.26
2018-08-17T06:29:31.458Z,1013.35
2018-08-17T06:30:31.421Z,1013.35
2018-08-17T06:31:31.412Z,1013.41
2018-08-17T06:32:31.435Z,1013.40
2018-08-17T06:33:31.408Z,1013.36
2018-08-17T06:34:31.374Z,1013.36
2018-08-17T06:35:31.370Z,1013.29
2018-08-17T06:36:31.350Z,1013.25
2018-08-17T06:37:31.378Z,1013.20
2018-08-17T06:38:31.333Z,1013.12
2018-08-17T06:39:31.319Z,1013.10
2018-08-17T06:40:31.309Z,1013.11
2018-08-17T06:41:31.293Z,1013.05
2018-08-17T06:42:31.281Z,1013.05
2018-08-17T06:43:31.326Z,1012.99
2018-08-17T06:44:31.258Z,1012.95
2018-08-17T06:45:31.253Z,1012.93
2018-08-17T06:46:31.241Z,1012.96
2018-08-17T06:47:31.233Z,1012.99
2018-08-17T06:48:31.243Z,1013.14
2018-08-17T06:49:31.200Z,1013.26
2018-08-17T06:50:31.247Z,1013.24
2018-08-17T06:51:31.177Z,1013.21
2018-08-17T06:52:31.167Z,1013.20
2018-08-17T06:53:31.162Z,1013.21
2018-08-17T06:54:31.168Z,1013.16
2018-08-17T06:55:31.136Z,1013.19
2018-08-17T06:56:31.128Z,1013.18
2018-08-17T06:57:31.121Z,1013.24
2018-08-17T06:58:31.127Z,1013.27
2018-08-17T06:59:31.092Z,1013.15
2018-08-17T07:00:31.083Z,1013.21
2018-08-17T07:01:31.072Z,1013.20
2018-08-17T07:02:31.078Z,1013.17
2018-08-17T07:03:31.047Z,1013.12
2018-08-17T07:04:31.056Z,1013.23
2018-08-17T07:05:31.025Z,1013.20
2018-08-17T07:06:31.013Z,1013.26
2018-08-17T07:07:31.013Z,1013.33
2018-08-17T07:08:31.008Z,1013.27
2018-08-17T07:09:31.077Z,1013.23
2018-08-17T07:10:30.967Z,1013.26
2018-08-17T07:11:30.962Z,1013.27
2018-08-17T07:12:30.945Z,1013.23
2018-08-17T07:13:30.944Z,1013.25
2018-08-17T07:14:30.925Z,1013.29
2018-08-17T07:15:30.953Z,1013.29
2018-08-17T07:16:30.943Z,1013.32
2018-08-17T07:17:30.893Z,1013.32
2018-08-17T07:18:30.942Z,1013.24
2018-08-17T07:19:30.863Z,1013.23
2018-08-17T07:20:30.893Z,1013.34
2018-08-17T07:21:30.938Z,1013.30
2018-08-17T07:22:30.844Z,1013.35
2018-08-17T07:23:30.825Z,1013.34
2018-08-17T07:24:30.818Z,1013.38
2018-08-17T07:25:30.835Z,1013.35
2018-08-17T07:26:30.786Z,1013.38
2018-08-17T07:27:30.777Z,1013.38
2018-08-17T07:28:30.770Z,1013.46
2018-08-17T07:29:30.755Z,1013.47
2018-08-17T07:30:30.741Z,1013.50
2018-08-17T07:31:30.759Z,1013.52
2018-08-17T07:32:30.725Z,1013.58
2018-08-17T07:33:30.712Z,1013.59
2018-08-17T07:34:30.698Z,1013.62
2018-08-17T07:35:30.707Z,1013.58
2018-08-17T07:36:30.705Z,1013.56
2018-08-17T07:37:30.674Z,1013.51
2018-08-17T07:38:30.661Z,1013.51
2018-08-17T07:39:30.644Z,1013.53
2018-08-17T07:40:30.633Z,1013.52
2018-08-17T07:41:30.680Z,1013.63
2018-08-17T07:42:30.627Z,1013.65
2018-08-17T07:43:30.603Z,1013.64
2018-08-17T07:44:30.598Z,1013.65
2018-08-17T07:45:30.581Z,1013.57
2018-08-17T07:46:30.565Z,1013.61
2018-08-17T07:47:30.578Z,1013.55
2018-08-17T07:48:30.549Z,1013.54
2018-08-17T07:49:30.557Z,1013.57
2018-08-17T07:50:30.521Z,1013.64
2018-08-17T07:51:30.511Z,1013.67
2018-08-17T07:52:30.503Z,1013.64
2018-08-17T07:53:30.492Z,1013.64
2018-08-17T07:54:30.511Z,1013.68
2018-08-17T07:55:30.496Z,1013.69
2018-08-17T07:56:30.459Z,1013.68
2018-08-17T07:57:30.447Z,1013.64
2018-08-17T07:58:30.448Z,1013.63
2018-08-17T07:59:30.428Z,1013.66
2018-08-17T08:00:30.446Z,1013.71
2018-08-17T08:01:30.412Z,1013.76
2018-08-17T08:02:30.397Z,1013.82
2018-08-17T08:03:30.391Z,1013.86
2018-08-17T08:04:30.968Z,1013.84
2018-08-17T08:05:30.384Z,1013.83
2018-08-17T08:06:30.349Z,1013.87
2018-08-17T08:07:30.354Z,1013.91
2018-08-17T08:08:30.325Z,1013.86
2018-08-17T08:09:30.319Z,1013.83
2018-08-17T08:10:30.340Z,1013.81
2018-08-17T08:11:30.353Z,1013.84
2018-08-17T08:12:30.282Z,1013.87
2018-08-17T08:13:30.284Z,1013.91
2018-08-17T08:14:30.304Z,1014.01
2018-08-17T08:15:30.244Z,1013.95
2018-08-17T08:16:30.268Z,1014.00
2018-08-17T08:17:30.222Z,1013.98
2018-08-17T08:18:30.218Z,1014.02
2018-08-17T08:19:30.203Z,1014.03
2018-08-17T08:20:30.356Z,1014.00
2018-08-17T08:21:30.176Z,1014.05
2018-08-17T08:22:30.199Z,1014.09
2018-08-17T08:23:30.159Z,1014.07
2018-08-17T08:24:30.159Z,1014.10
2018-08-17T08:25:30.140Z,1014.13
2018-08-17T08:26:30.156Z,1014.15
2018-08-17T08:27:30.108Z,1014.18
2018-08-17T08:28:30.105Z,1014.15
2018-08-17T08:29:30.095Z,1014.12
2018-08-17T08:30:30.079Z,1014.15
2018-08-17T08:31:30.105Z,1014.25
2018-08-17T08:32:30.185Z,1014.25
2018-08-17T08:33:30.045Z,1014.26
2018-08-17T08:34:30.045Z,1014.29
2018-08-17T08:35:30.024Z,1014.32
2018-08-17T08:36:30.037Z,1014.38
2018-08-17T08:37:29.998Z,1014.37
2018-08-17T08:38:29.997Z,1014.35
2018-08-17T08:39:30.969Z,1014.38
2018-08-17T08:40:29.971Z,1014.35
2018-08-17T08:41:29.958Z,1014.37
2018-08-17T08:42:29.974Z,1014.32
2018-08-17T08:43:29.942Z,1014.39
2018-08-17T08:44:29.923Z,1014.44
2018-08-17T08:45:29.957Z,1014.46
2018-08-17T08:46:29.905Z,1014.41
2018-08-17T08:47:29.926Z,1014.40
2018-08-17T08:48:29.876Z,1014.39
2018-08-17T08:49:29.876Z,1014.39
2018-08-17T08:50:29.854Z,1014.41
2018-08-17T08:51:29.894Z,1014.44
2018-08-17T08:52:29.884Z,1014.49
2018-08-17T08:53:29.831Z,1014.53
2018-08-17T08:54:29.813Z,1014.56
2018-08-17T08:55:29.802Z,1014.57
2018-08-17T08:56:29.799Z,1014.60
2018-08-17T08:57:29.779Z,1014.60
2018-08-17T08:58:29.794Z,1014.67
2018-08-17T08:59:29.763Z,1014.60
2018-08-17T09:00:29.749Z,1014.64
2018-08-17T09:01:29.736Z,1014.70
2018-08-17T09:02:29.726Z,1014.66
2018-08-17T09:03:29.738Z,1014.66
2018-08-17T09:04:29.704Z,1014.66
2018-08-17T09:05:29.688Z,1014.75
2018-08-17T09:06:29.677Z,1014.76
2018-08-17T09:07:29.667Z,1014.69
2018-08-17T09:08:29.662Z,1014.71
2018-08-17T09:09:29.674Z,1014.68
2018-08-17T09:10:29.636Z,1014.71
2018-08-17T09:11:29.633Z,1014.69
2018-08-17T09:12:29.615Z,1014.72
2018-08-17T09:13:29.627Z,1014.71
2018-08-17T09:14:29.592Z,1014.71
2018-08-17T09:15:29.577Z,1014.73
2018-08-17T09:16:29.562Z,1014.73
2018-08-17T09:17:29.553Z,1014.77
2018-08-17T09:18:29.549Z,1014.72
2018-08-17T09:19:29.555Z,1014.79
2018-08-17T09:20:29.548Z,1014.76
2018-08-17T09:21:29.514Z,1014.77
2018-08-17T09:22:29.499Z,1014.84
2018-08-17T09:23:29.487Z,1014.82
2018-08-17T09:24:29.507Z,1014.81
2018-08-17T09:25:29.463Z,1014.84
2018-08-17T09:26:29.451Z,1014.85
2018-08-17T09:27:29.447Z,1014.89
2018-08-17T09:28:29.435Z,1014.93
2018-08-17T09:29:29.425Z,1014.95
2018-08-17T09:30:29.460Z,1014.94
2018-08-17T09:31:29.394Z,1014.90
2018-08-17T09:32:29.384Z,1014.97
2018-08-17T09:33:29.377Z,1015.02
2018-08-17T09:34:29.398Z,1014.96
2018-08-17T09:35:29.380Z,1015.04
2018-08-17T09:36:29.365Z,1014.97
2018-08-17T09:37:29.330Z,1014.98
2018-08-17T09:38:29.321Z,1014.97
2018-08-17T09:39:29.307Z,1014.95
2018-08-17T09:40:29.304Z,1014.95
2018-08-17T09:41:29.318Z,1014.97
2018-08-17T09:42:29.280Z,1014.92
2018-08-17T09:43:29.255Z,1014.90
2018-08-17T09:44:29.274Z,1014.88
2018-08-17T09:45:29.241Z,1014.84
2018-08-17T09:46:29.264Z,1014.89
2018-08-17T09:47:29.216Z,1014.86
2018-08-17T09:48:29.206Z,1014.84
2018-08-17T09:49:29.198Z,1014.86
2018-08-17T09:50:29.202Z,1014.84
2018-08-17T09:51:29.343Z,1014.83
2018-08-17T09:52:29.210Z,1014.84
2018-08-17T09:53:29.149Z,1014.76
2018-08-17T09:54:29.146Z,1014.73
2018-08-17T09:55:29.126Z,1014.85
2018-08-17T09:56:29.116Z,1014.84
2018-08-17T09:57:29.137Z,1014.82
2018-08-17T09:58:29.096Z,1014.85
2018-08-17T09:59:29.089Z,1014.81
2018-08-17T10:00:29.068Z,1014.78
2018-08-17T10:01:29.060Z,1014.73
2018-08-17T10:02:29.072Z,1014.77
2018-08-17T10:03:29.040Z,1014.70
2018-08-17T10:04:29.029Z,1014.74
2018-08-17T10:05:29.020Z,1014.71
2018-08-17T10:06:29.001Z,1014.68
2018-08-17T10:07:29.022Z,1014.77
2018-08-17T10:08:28.978Z,1014.72
2018-08-17T10:09:28.981Z,1014.73
2018-08-17T10:10:28.962Z,1014.74
2018-08-17T10:11:28.944Z,1014.74
2018-08-17T10:12:28.988Z,1014.77
2018-08-17T10:13:28.932Z,1014.78
2018-08-17T10:14:28.934Z,1014.80
2018-08-17T10:15:28.904Z,1014.86
2018-08-17T10:16:28.891Z,1014.86
2018-08-17T10:17:28.906Z,1014.91
2018-08-17T10:18:28.895Z,1014.90
2018-08-17T10:19:28.859Z,1014.88
2018-08-17T10:20:28.852Z,1014.87
2018-08-17T10:21:29.079Z,1014.89
2018-08-17T10:22:28.830Z,1014.87
2018-08-17T10:23:28.851Z,1014.96
2018-08-17T10:24:28.802Z,1014.89
2018-08-17T10:25:28.796Z,1014.91
2018-08-17T10:26:28.776Z,1014.93
2018-08-17T10:27:28.768Z,1014.94
2018-08-17T10:28:28.810Z,1014.89
2018-08-17T10:29:28.749Z,1014.98
2018-08-17T10:30:28.740Z,1014.92
2018-08-17T10:31:28.729Z,1014.92
2018-08-17T10:32:28.714Z,1014.99
2018-08-17T10:33:28.742Z,1014.97
2018-08-17T10:34:28.743Z,1014.98
2018-08-17T10:35:28.683Z,1014.94
2018-08-17T10:36:28.678Z,1014.97
2018-08-17T10:37:28.662Z,1014.96
2018-08-17T10:38:28.655Z,1015.07
2018-08-17T10:39:28.647Z,1015.08
2018-08-17T10:40:28.654Z,1014.99
2018-08-17T10:41:28.617Z,1015.07
2018-08-17T10:42:28.603Z,1015.02
2018-08-17T10:43:28.626Z,1015.01
2018-08-17T10:44:28.581Z,1015.04
2018-08-17T10:45:28.570Z,1015.00
2018-08-17T10:46:28.559Z,1014.99
2018-08-17T10:47:28.556Z,1015.00
2018-08-17T10:48:28.568Z,1015.03
2018-08-17T10:49:28.532Z,1015.04
2018-08-17T10:50:28.512Z,1015.00
2018-08-17T10:51:28.523Z,1015.06
2018-08-17T10:52:28.495Z,1015.07
2018-08-17T10:53:28.480Z,1015.09
2018-08-17T10:54:28.482Z,1015.07
2018-08-17T10:55:28.526Z,1015.09
2018-08-17T10:56:28.492Z,1015.10
2018-08-17T10:57:28.520Z,1015.15
2018-08-17T10:58:28.423Z,1015.18
2018-08-17T10:59:28.421Z,1015.24
2018-08-17T11:00:28.404Z,1015.22
2018-08-17T11:01:28.392Z,1015.25
2018-08-17T11:02:28.414Z,1015.23
2018-08-17T11:03:28.370Z,1015.22
2018-08-17T11:04:28.367Z,1015.23
2018-08-17T11:05:28.375Z,1015.24
2018-08-17T11:06:28.335Z,1015.23
2018-08-17T11:07:28.328Z,1015.22
2018-08-17T11:08:28.317Z,1015.27
2018-08-17T11:09:28.303Z,1015.28
2018-08-17T11:10:28.381Z,1015.25
2018-08-17T11:11:28.280Z,1015.23
2018-08-17T11:12:28.264Z,1015.26
2018-08-17T11:13:28.335Z,1015.31
2018-08-17T11:14:28.260Z,1015.33
2018-08-17T11:15:28.268Z,1015.38
2018-08-17T11:16:28.231Z,1015.35
2018-08-17T11:17:28.215Z,1015.32
2018-08-17T11:18:28.203Z,1015.31
2018-08-17T11:19:28.197Z,1015.34
2018-08-17T11:20:28.179Z,1015.32
2018-08-17T11:21:28.207Z,1015.32
2018-08-17T11:22:28.162Z,1015.30
2018-08-17T11:23:28.173Z,1015.29
2018-08-17T11:24:28.147Z,1015.32
2018-08-17T11:25:28.128Z,1015.34
2018-08-17T11:26:28.123Z,1015.36
2018-08-17T11:27:28.110Z,1015.29
2018-08-17T11:28:28.141Z,1015.32
2018-08-17T11:29:28.131Z,1015.33
2018-08-17T11:30:28.071Z,1015.33
2018-08-17T11:31:28.063Z,1015.34
2018-08-17T11:32:28.046Z,1015.37
2018-08-17T11:33:28.039Z,1015.33
2018-08-17T11:34:28.119Z,1015.37
2018-08-17T11:35:28.014Z,1015.39
2018-08-17T11:36:28.007Z,1015.32
2018-08-17T11:37:27.999Z,1015.28
2018-08-17T11:38:27.984Z,1015.31
2018-08-17T11:39:27.998Z,1015.31
2018-08-17T11:40:27.960Z,1015.36
2018-08-17T11:41:28.011Z,1015.29
2018-08-17T11:42:27.941Z,1015.24
2018-08-17T11:43:27.923Z,1015.28
2018-08-17T11:44:27.916Z,1015.27
2018-08-17T11:45:27.928Z,1015.29
2018-08-17T11:46:27.888Z,1015.26
2018-08-17T11:47:27.876Z,1015.27
2018-08-17T11:48:27.871Z,1015.31
2018-08-17T11:49:27.862Z,1015.30
2018-08-17T11:50:27.953Z,1015.36
2018-08-17T11:51:27.831Z,1015.34
2018-08-17T11:52:27.825Z,1015.36
2018-08-17T11:53:27.861Z,1015.35
2018-08-17T11:54:27.818Z,1015.36
2018-08-17T11:55:27.819Z,1015.37
2018-08-17T11:56:27.778Z,1015.39
2018-08-17T11:57:27.767Z,1015.43
2018-08-17T11:58:27.756Z,1015.44
2018-08-17T11:59:27.746Z,1015.48
2018-08-17T12:00:27.779Z,1015.49
2018-08-17T12:01:27.726Z,1015.45
2018-08-17T12:02:27.727Z,1015.46
2018-08-17T12:03:27.700Z,1015.44
2018-08-17T12:04:27.688Z,1015.49
2018-08-17T12:05:27.688Z,1015.50